createdAt,value
2018-09-23T00:01:37.983Z,99253.43
2018-09-23T00:04:07.047Z,99258.13
2018-09-23T00:06:36.131Z,99256.08
2018-09-23T00:09:07.005Z,99260.32
2018-09-23T00:11:36.084Z,99255.88
2018-09-23T00:14:05.149Z,99259.82
2018-09-23T00:16:34.250Z,99258.84
2018-09-23T00:19:03.304Z,99259.51
2018-09-23T00:21:32.338Z,99258.53
2018-09-23T00:24:01.693Z,99261.27
2018-09-23T00:26:30.725Z,99260.13
2018-09-23T00:28:59.754Z,99253.21
2018-09-23T00:31:29.189Z,99259.31
2018-09-23T00:33:58.196Z,99250.56
2018-09-23T00:36:27.230Z,99260.89
2018-09-23T00:38:56.313Z,99265.16
2018-09-23T00:41:25.348Z,99261.21
2018-09-23T00:43:54.387Z,99263.78
2018-09-23T00:46:23.708Z,99264.50
2018-09-23T00:48:52.733Z,99261.82
2018-09-23T00:51:21.764Z,99267.34
2018-09-23T00:53:50.822Z,99267.23
2018-09-23T00:56:19.852Z,99261.17
2018-09-23T00:58:48.876Z,99268.05
2018-09-23T01:01:17.954Z,99267.88
2018-09-23T01:03:46.997Z,99273.91
2018-09-23T01:06:16.028Z,99269.75
2018-09-23T01:08:45.124Z,99266.02
2018-09-23T01:11:14.156Z,99263.94
2018-09-23T01:13:43.165Z,99262.70
2018-09-23T01:16:12.517Z,99261.40
2018-09-23T01:18:41.571Z,99258.71
2018-09-23T01:21:10.613Z,99264.12
2018-09-23T01:23:39.975Z,99270.23
2018-09-23T01:26:09.152Z,99263.79
2018-09-23T01:28:38.643Z,99266.44
2018-09-23T01:31:07.765Z,99270.89
2018-09-23T01:33:36.779Z,99239.58
2018-09-23T01:36:06.322Z,99274.77
2018-09-23T01:38:35.658Z,99283.77
2018-09-23T01:41:04.717Z,99288.36
2018-09-23T01:43:33.728Z,99285.89
2018-09-23T01:46:03.207Z,99292.34
2018-09-23T01:48:32.256Z,99296.55
2018-09-23T01:51:01.412Z,99296.20
2018-09-23T01:53:30.463Z,99291.75
2018-09-23T01:55:59.497Z,99294.62
2018-09-23T01:58:28.569Z,99289.63
2018-09-23T02:00:57.898Z,99288.78
2018-09-23T02:03:26.935Z,99291.56
2018-09-23T02:05:55.945Z,99289.98
2018-09-23T02:08:25.042Z,99285.64
2018-09-23T02:10:54.124Z,99282.13
2018-09-23T02:13:23.141Z,99279.52
2018-09-23T02:15:52.485Z,99276.19
2018-09-23T02:18:21.516Z,99274.82
2018-09-23T02:20:50.606Z,99271.43
2018-09-23T02:23:19.654Z,99274.98
2018-09-23T02:25:48.667Z,99270.41
2018-09-23T02:28:17.691Z,99266.27
2018-09-23T02:30:47.088Z,99269.53
2018-09-23T02:33:16.097Z,99265.72
2018-09-23T02:35:45.129Z,99272.31
2018-09-23T02:38:14.205Z,99278.37
2018-09-23T02:40:43.241Z,99275.92
2018-09-23T02:43:12.273Z,99281.86
2018-09-23T02:45:41.586Z,99277.60
2018-09-23T02:48:10.701Z,99268.59
2018-09-23T02:50:39.697Z,99267.52
2018-09-23T02:53:08.773Z,99268.00
2018-09-23T02:55:38.516Z,99282.34
2018-09-23T02:58:07.541Z,99281.05
2018-09-23T03:00:36.903Z,99275.81
2018-09-23T03:03:05.933Z,99277.01
2018-09-23T03:05:34.966Z,99274.98
2018-09-23T03:08:04.037Z,99273.14
2018-09-23T03:10:33.073Z,99270.13
2018-09-23T03:13:02.097Z,99266.97
2018-09-23T03:15:31.501Z,99266.91
2018-09-23T03:18:00.515Z,99264.30
2018-09-23T03:20:29.530Z,99260.08
2018-09-23T03:22:58.617Z,99253.80
2018-09-23T03:25:27.654Z,99251.09
2018-09-23T03:27:56.735Z,99251.77
2018-09-23T03:30:26.105Z,99243.40
2018-09-23T03:32:55.154Z,99246.41
2018-09-23T03:35:24.161Z,99250.33
2018-09-23T03:37:53.229Z,99259.39
2018-09-23T03:40:22.258Z,99259.80
2018-09-23T03:42:51.472Z,99254.27
2018-09-23T03:45:20.907Z,99256.71
2018-09-23T03:47:49.938Z,99268.70
2018-09-23T03:50:18.970Z,99273.41
2018-09-23T03:52:48.040Z,99274.78
2018-09-23T03:55:17.060Z,99278.42
2018-09-23T03:57:46.053Z,99281.97
2018-09-23T04:00:15.469Z,99280.29
2018-09-23T04:02:44.509Z,99280.98
2018-09-23T04:05:13.545Z,99277.05
2018-09-23T04:07:42.633Z,99288.97
2018-09-23T04:10:11.699Z,99285.25
2018-09-23T04:12:40.711Z,99284.82
2018-09-23T04:15:10.278Z,99283.42
2018-09-23T04:17:39.343Z,99280.05
2018-09-23T04:20:08.386Z,99289.67
2018-09-23T04:22:41.490Z,99292.44
2018-09-23T04:25:10.613Z,99293.80
2018-09-23T04:27:39.663Z,99301.15
2018-09-23T04:30:09.206Z,99302.22
2018-09-23T04:32:39.234Z,99299.52
2018-09-23T04:35:08.305Z,99308.95
2018-09-23T04:37:37.455Z,99312.79
2018-09-23T04:40:06.556Z,99311.67
2018-09-23T04:42:36.165Z,99312.50
2018-09-23T04:45:05.702Z,99315.17
2018-09-23T04:47:35.679Z,99306.95
2018-09-23T04:50:04.809Z,99310.64
2018-09-23T04:52:34.283Z,99314.78
2018-09-23T04:55:03.472Z,99318.05
2018-09-23T04:57:32.660Z,99322.36
2018-09-23T05:00:02.082Z,99329.92
2018-09-23T05:02:31.172Z,99331.09
2018-09-23T05:05:00.281Z,99321.39
2018-09-23T05:07:29.542Z,99318.83
2018-09-23T05:09:58.640Z,99329.36
2018-09-23T05:12:27.715Z,99339.77
2018-09-23T05:14:56.842Z,99341.81
2018-09-23T05:17:25.969Z,99343.66
2018-09-23T05:19:55.114Z,99344.25
2018-09-23T05:22:24.565Z,99346.97
2018-09-23T05:24:53.653Z,99339.19
2018-09-23T05:27:22.783Z,99344.35
2018-09-23T05:29:52.874Z,99345.42
2018-09-23T05:32:22.593Z,99347.61
2018-09-23T05:34:52.010Z,99348.05
2018-09-23T05:37:21.450Z,99348.31
2018-09-23T05:39:50.568Z,99347.41
2018-09-23T05:42:19.712Z,99354.83
2018-09-23T05:44:48.870Z,99353.81
2018-09-23T05:47:17.946Z,99355.02
2018-09-23T05:49:47.042Z,99358.80
2018-09-23T05:52:16.180Z,99350.09
2018-09-23T05:54:45.243Z,99363.28
2018-09-23T05:57:15.256Z,99364.82
2018-09-23T05:59:44.383Z,99363.88
2018-09-23T06:02:13.737Z,99373.94
2018-09-23T06:04:42.929Z,99370.87
2018-09-23T06:07:12.142Z,99375.64
2018-09-23T06:09:41.246Z,99377.78
2018-09-23T06:12:10.374Z,99376.44
2018-09-23T06:14:39.782Z,99375.77
2018-09-23T06:17:09.137Z,99384.88
2018-09-23T06:19:38.235Z,99376.31
2018-09-23T06:22:07.448Z,99379.25
2018-09-23T06:24:36.566Z,99380.69
2018-09-23T06:27:05.979Z,99376.00
2018-09-23T06:29:35.513Z,99382.20
2018-09-23T06:32:04.618Z,99379.69
2018-09-23T06:34:34.501Z,99385.52
2018-09-23T06:37:03.840Z,99388.53
2018-09-23T06:39:33.890Z,99389.81
2018-09-23T06:42:03.025Z,99397.21
2018-09-23T06:44:32.160Z,99401.05
2018-09-23T06:47:01.827Z,99394.60
2018-09-23T06:49:31.049Z,99402.31
2018-09-23T06:52:00.180Z,99402.84
2018-09-23T06:54:29.339Z,99409.45
2018-09-23T06:56:58.491Z,99417.42
2018-09-23T06:59:27.991Z,99417.83
2018-09-23T07:01:57.083Z,99416.74
2018-09-23T07:04:26.218Z,99417.05
2018-09-23T07:06:56.300Z,99419.86
2018-09-23T07:09:25.415Z,99418.52
2018-09-23T07:11:54.536Z,99415.99
2018-09-23T07:14:23.757Z,99421.27
2018-09-23T07:16:53.625Z,99415.94
2018-09-23T07:19:22.715Z,99411.59
2018-09-23T07:21:51.872Z,99413.78
2018-09-23T07:24:20.981Z,99414.33
2018-09-23T07:26:51.024Z,99415.09
2018-09-23T07:29:20.456Z,99409.65
2018-09-23T07:31:49.519Z,99411.96
2018-09-23T07:34:18.676Z,99406.94
2018-09-23T07:36:48.172Z,99400.70
2018-09-23T07:39:17.261Z,99400.18
2018-09-23T07:41:46.395Z,99398.84
2018-09-23T07:44:15.967Z,99394.02
2018-09-23T07:46:45.030Z,99398.08
2018-09-23T07:49:14.131Z,99393.75
2018-09-23T07:51:43.583Z,99398.30
2018-09-23T07:54:13.447Z,99392.41
2018-09-23T07:56:42.587Z,99389.95
2018-09-23T07:59:12.112Z,99389.30
2018-09-23T08:01:41.209Z,99396.46
2018-09-23T08:04:10.358Z,99394.69
2018-09-23T08:06:39.805Z,99391.33
2018-09-23T08:09:09.920Z,99389.48
2018-09-23T08:11:39.717Z,99381.60
2018-09-23T08:14:10.049Z,99385.55
2018-09-23T08:16:39.234Z,99389.41
2018-09-23T08:19:08.799Z,99355.00
2018-09-23T08:21:38.300Z,99379.00
2018-09-23T08:24:07.458Z,99375.17
2018-09-23T08:26:36.723Z,99369.63
2018-09-23T08:29:05.962Z,99371.73
2018-09-23T08:31:35.928Z,99372.64
2018-09-23T08:34:05.126Z,99364.41
2018-09-23T08:36:34.316Z,99362.16
2018-09-23T08:39:03.625Z,99362.45
2018-09-23T08:41:33.121Z,99364.02
2018-09-23T08:44:02.823Z,99366.24
2018-09-23T08:46:31.995Z,99359.34
2018-09-23T08:49:02.607Z,99364.48
2018-09-23T08:51:33.148Z,99366.08
2018-09-23T08:54:02.326Z,99369.91
2018-09-23T08:56:31.481Z,99367.06
2018-09-23T08:59:01.245Z,99365.84
2018-09-23T09:01:30.384Z,99368.14
2018-09-23T09:04:00.312Z,99361.30
2018-09-23T09:06:29.468Z,99362.39
2018-09-23T09:08:58.557Z,99357.73
2018-09-23T09:11:27.699Z,99352.86
2018-09-23T09:13:57.802Z,99358.55
2018-09-23T09:16:26.962Z,99355.19
2018-09-23T09:18:56.094Z,99352.55
2018-09-23T09:21:25.348Z,99345.10
2018-09-23T09:23:54.531Z,99338.22
2018-09-23T09:26:23.674Z,99339.00
2018-09-23T09:28:54.109Z,99338.33
2018-09-23T09:31:23.483Z,99339.72
2018-09-23T09:33:52.626Z,99341.55
2018-09-23T09:36:21.834Z,99339.73
2018-09-23T09:38:50.984Z,99341.84
2018-09-23T09:41:20.155Z,99343.70
2018-09-23T09:43:49.769Z,99340.13
2018-09-23T09:46:18.890Z,99333.13
2018-09-23T09:48:51.475Z,99337.39
2018-09-23T09:51:21.061Z,99337.66
2018-09-23T09:53:50.842Z,99339.44
2018-09-23T09:56:19.951Z,99339.41
2018-09-23T09:58:49.162Z,99343.27
2018-09-23T10:01:18.388Z,99340.84
2018-09-23T10:03:47.582Z,99332.00
2018-09-23T10:06:17.049Z,99335.19
2018-09-23T10:08:46.212Z,99321.53
2018-09-23T10:11:15.340Z,99326.70
2018-09-23T10:13:45.304Z,99323.10
2018-09-23T10:16:14.442Z,99321.53
2018-09-23T10:18:43.660Z,99322.84
2018-09-23T10:21:13.472Z,99320.67
2018-09-23T10:23:43.218Z,99320.84
2018-09-23T10:26:16.125Z,99320.55
2018-09-23T10:28:45.288Z,99307.48
2018-09-23T10:31:14.383Z,99303.33
2018-09-23T10:33:43.792Z,99298.77
2018-09-23T10:36:12.980Z,99299.48
2018-09-23T10:38:42.018Z,99292.77
2018-09-23T10:41:11.222Z,99293.73
2018-09-23T10:43:40.293Z,99287.48
2018-09-23T10:46:09.425Z,99285.02
2018-09-23T10:48:38.939Z,99282.67
2018-09-23T10:51:08.513Z,99274.59
2018-09-23T10:53:37.638Z,99273.22
2018-09-23T10:56:06.826Z,99265.48
2018-09-23T10:58:35.922Z,99269.03
2018-09-23T11:01:05.125Z,99262.70
2018-09-23T11:03:34.256Z,99255.77
2018-09-23T11:06:03.556Z,99257.95
2018-09-23T11:08:32.633Z,99254.09
2018-09-23T11:11:01.814Z,99251.47
2018-09-23T11:13:30.932Z,99249.27
2018-09-23T11:16:00.017Z,99252.60
2018-09-23T11:18:29.197Z,99247.21
2018-09-23T11:20:58.304Z,99233.28
2018-09-23T11:23:27.487Z,99233.31
2018-09-23T11:25:56.589Z,99229.94
2018-09-23T11:28:25.714Z,99223.96
2018-09-23T11:30:54.860Z,99226.64
2018-09-23T11:33:24.370Z,99216.98
2018-09-23T11:35:53.543Z,99218.11
2018-09-23T11:38:22.754Z,99217.80
2018-09-23T11:40:51.983Z,99216.36
2018-09-23T11:43:21.121Z,99214.45
2018-09-23T11:45:50.291Z,99211.95
2018-09-23T11:48:20.708Z,99200.39
2018-09-23T11:50:49.829Z,99204.23
2018-09-23T11:53:19.585Z,99199.73
2018-09-23T11:55:49.205Z,99194.08
2018-09-23T11:58:18.277Z,99194.25
2018-09-23T12:00:47.457Z,99184.80
2018-09-23T12:03:16.667Z,99184.48
2018-09-23T12:05:46.377Z,99181.12
2018-09-23T12:08:15.696Z,99180.14
2018-09-23T12:10:45.333Z,99172.55
2018-09-23T12:13:14.613Z,99172.95
2018-09-23T12:15:46.721Z,99175.06
2018-09-23T12:18:16.250Z,99170.75
2018-09-23T12:20:45.840Z,99177.00
2018-09-23T12:23:15.359Z,99164.50
2018-09-23T12:25:45.555Z,99164.31
2018-09-23T12:28:16.429Z,99169.00
2018-09-23T12:30:46.400Z,99159.38
2018-09-23T12:33:15.542Z,99150.27
2018-09-23T12:35:45.153Z,99157.25
2018-09-23T12:38:14.952Z,99151.23
2018-09-23T12:40:44.066Z,99159.20
2018-09-23T12:43:13.584Z,99153.05
2018-09-23T12:45:42.860Z,99153.22
2018-09-23T12:48:12.690Z,99154.53
2018-09-23T12:50:42.469Z,99145.20
2018-09-23T12:53:11.589Z,99143.92
2018-09-23T12:55:40.802Z,99138.94
2018-09-23T12:58:11.246Z,99141.82
2018-09-23T13:00:40.370Z,99132.46
2018-09-23T13:03:09.454Z,99140.82
2018-09-23T13:05:39.012Z,99144.73
2018-09-23T13:08:08.528Z,99140.77
2018-09-23T13:10:37.669Z,99146.14
2018-09-23T13:13:07.277Z,99142.83
2018-09-23T13:15:36.473Z,99139.90
2018-09-23T13:18:06.550Z,99137.70
2018-09-23T13:20:35.741Z,99140.41
2018-09-23T13:23:04.901Z,99137.82
2018-09-23T13:25:34.052Z,99134.13
2018-09-23T13:28:03.547Z,99128.81
2018-09-23T13:30:33.652Z,99133.71
2018-09-23T13:33:02.801Z,99134.02
2018-09-23T13:35:32.120Z,99125.64
2018-09-23T13:38:01.333Z,99127.62
2018-09-23T13:40:30.627Z,99130.08
2018-09-23T13:43:00.158Z,99132.91
2018-09-23T13:45:29.340Z,99125.63
2018-09-23T13:47:58.509Z,99125.93
2018-09-23T13:50:28.391Z,99124.67
2018-09-23T13:52:57.474Z,99125.62
2018-09-23T13:55:26.628Z,99126.11
2018-09-23T13:57:56.090Z,99123.23
2018-09-23T14:00:25.256Z,99127.83
2018-09-23T14:02:54.417Z,99115.06
2018-09-23T14:05:23.906Z,99115.22
2018-09-23T14:07:53.218Z,99111.47
2018-09-23T14:10:22.345Z,99105.49
2018-09-23T14:12:53.287Z,99101.66
2018-09-23T14:15:22.446Z,99096.09
2018-09-23T14:17:51.576Z,99107.01
2018-09-23T14:20:21.155Z,99104.39
2018-09-23T14:22:50.274Z,99101.29
2018-09-23T14:25:19.362Z,99104.41
2018-09-23T14:27:48.651Z,99101.10
2018-09-23T14:30:17.782Z,99102.09
2018-09-23T14:32:47.285Z,99100.94
2018-09-23T14:35:18.132Z,99105.30
2018-09-23T14:37:47.268Z,99104.81
2018-09-23T14:40:16.388Z,99098.75
2018-09-23T14:42:45.822Z,99093.77
2018-09-23T14:45:14.929Z,99096.98
2018-09-23T14:47:44.966Z,99091.72
2018-09-23T14:50:14.106Z,99094.67
2018-09-23T14:52:44.244Z,99090.59
2018-09-23T14:55:13.453Z,99092.39
2018-09-23T14:57:42.868Z,99087.45
2018-09-23T15:00:12.019Z,99085.65
2018-09-23T15:02:41.138Z,99089.37
2018-09-23T15:05:10.314Z,99088.63
2018-09-23T15:07:39.492Z,99088.70
2018-09-23T15:10:08.702Z,99091.27
2018-09-23T15:12:37.940Z,99090.83
2018-09-23T15:15:07.979Z,99094.13
2018-09-23T15:17:37.144Z,99095.70
2018-09-23T15:20:07.271Z,99095.67
2018-09-23T15:22:36.440Z,99094.59
2018-09-23T15:25:05.625Z,99093.54
2018-09-23T15:27:35.332Z,99091.27
2018-09-23T15:30:04.586Z,99094.44
2018-09-23T15:32:33.736Z,99096.05
2018-09-23T15:35:03.285Z,99085.61
2018-09-23T15:37:32.378Z,99088.75
2018-09-23T15:40:01.455Z,99089.93
2018-09-23T15:42:30.590Z,99092.32
2018-09-23T15:44:59.714Z,99094.47
2018-09-23T15:47:28.866Z,99095.05
2018-09-23T15:49:58.035Z,99096.31
2018-09-23T15:52:27.207Z,99095.73
2018-09-23T15:54:56.317Z,99093.89
2018-09-23T15:57:25.463Z,99091.36
2018-09-23T15:59:54.630Z,99092.08
2018-09-23T16:02:23.725Z,99087.98
2018-09-23T16:04:52.860Z,99094.45
2018-09-23T16:07:22.724Z,99094.45
2018-09-23T16:09:51.829Z,99098.78
2018-09-23T16:12:20.955Z,99093.89
2018-09-23T16:14:50.054Z,99097.97
2018-09-23T16:17:19.131Z,99093.19
2018-09-23T16:19:48.246Z,99094.84
2018-09-23T16:22:17.386Z,99102.91
2018-09-23T16:24:46.477Z,99096.79
2018-09-23T16:27:16.894Z,99097.67
2018-09-23T16:29:46.017Z,99096.34
2018-09-23T16:32:15.165Z,99097.20
2018-09-23T16:34:44.594Z,99090.92
2018-09-23T16:37:13.691Z,99094.39
2018-09-23T16:39:42.814Z,99094.05
2018-09-23T16:42:12.247Z,99089.81
2018-09-23T16:44:41.417Z,99089.11
2018-09-23T16:47:11.394Z,99086.19
2018-09-23T16:49:40.871Z,99086.05
2018-09-23T16:52:09.969Z,99089.00
2018-09-23T16:54:39.133Z,99084.90
2018-09-23T16:57:08.611Z,99084.84
2018-09-23T16:59:37.745Z,99089.73
2018-09-23T17:02:06.886Z,99091.11
2018-09-23T17:04:36.373Z,99093.55
2018-09-23T17:07:05.526Z,99095.91
2018-09-23T17:09:35.490Z,99091.33
2018-09-23T17:12:04.685Z,99096.16
2018-09-23T17:14:33.759Z,99104.70
2018-09-23T17:17:02.849Z,99105.39
2018-09-23T17:19:32.536Z,99103.19
2018-09-23T17:22:01.736Z,99105.19
2018-09-23T17:24:30.859Z,99102.09
2018-09-23T17:27:00.650Z,99119.59
2018-09-23T17:29:29.826Z,99114.09
2018-09-23T17:31:59.310Z,99121.53
2018-09-23T17:34:28.508Z,99111.97
2018-09-23T17:36:58.240Z,99117.92
2018-09-23T17:39:27.348Z,99118.99
2018-09-23T17:41:56.856Z,99121.67
2018-09-23T17:44:25.936Z,99123.09
2018-09-23T17:46:55.791Z,99122.66
2018-09-23T17:49:25.289Z,99124.72
2018-09-23T17:51:55.434Z,99127.95
2018-09-23T17:54:24.522Z,99130.14
2018-09-23T17:56:53.998Z,99123.64
2018-09-23T17:59:23.151Z,99125.89
2018-09-23T18:01:52.364Z,99125.87
2018-09-23T18:04:22.326Z,99121.23
2018-09-23T18:06:52.448Z,99124.72
2018-09-23T18:09:21.657Z,99122.30
2018-09-23T18:11:50.802Z,99118.69
2018-09-23T18:14:19.872Z,99122.27
2018-09-23T18:16:49.025Z,99121.47
2018-09-23T18:19:18.455Z,99122.94
2018-09-23T18:21:47.599Z,99126.11
2018-09-23T18:24:16.710Z,99126.23
2018-09-23T18:26:46.301Z,99127.40
2018-09-23T18:29:16.319Z,99133.33
2018-09-23T18:31:45.480Z,99126.69
2018-09-23T18:34:15.027Z,99123.14
2018-09-23T18:36:44.525Z,99125.56
2018-09-23T18:39:13.720Z,99128.27
2018-09-23T18:41:43.241Z,99129.70
2018-09-23T18:44:12.368Z,99139.56
2018-09-23T18:46:41.665Z,99141.10
2018-09-23T18:49:10.930Z,99135.06
2018-09-23T18:51:40.042Z,99135.94
2018-09-23T18:54:15.218Z,99125.23
2018-09-23T18:56:45.217Z,99134.64
2018-09-23T18:59:15.098Z,99136.84
2018-09-23T19:01:44.640Z,99141.81
2018-09-23T19:04:13.824Z,99146.98
2018-09-23T19:06:42.986Z,99146.14
2018-09-23T19:09:12.549Z,99140.29
2018-09-23T19:11:41.768Z,99142.88
2018-09-23T19:14:12.095Z,99136.55
2018-09-23T19:16:41.891Z,99141.27
2018-09-23T19:19:13.577Z,99141.21
2018-09-23T19:21:42.790Z,99142.92
2018-09-23T19:24:12.728Z,99144.31
2018-09-23T19:26:42.916Z,99135.02
2018-09-23T19:29:12.512Z,99135.84
2018-09-23T19:31:41.728Z,99137.55
2018-09-23T19:34:11.719Z,99138.92
2018-09-23T19:36:40.929Z,99133.14
2018-09-23T19:39:11.133Z,99141.02
2018-09-23T19:41:40.596Z,99152.41
2018-09-23T19:44:10.478Z,99153.80
2018-09-23T19:46:39.701Z,99155.45
2018-09-23T19:49:08.875Z,99157.67
2018-09-23T19:51:38.408Z,99157.88
2018-09-23T19:54:07.495Z,99160.89
2018-09-23T19:56:37.694Z,99153.71
2018-09-23T19:59:07.283Z,99155.84
2018-09-23T20:01:36.797Z,99156.66
2018-09-23T20:04:05.933Z,99152.98
2018-09-23T20:06:36.012Z,99155.78
2018-09-23T20:09:06.536Z,99149.67
2018-09-23T20:11:35.638Z,99149.67
2018-09-23T20:14:04.869Z,99152.31
2018-09-23T20:16:34.040Z,99154.79
2018-09-23T20:19:03.151Z,99158.53
2018-09-23T20:21:32.438Z,99166.34
2018-09-23T20:24:02.135Z,99175.56
2018-09-23T20:26:31.322Z,99176.44
2018-09-23T20:29:01.704Z,99173.31
2018-09-23T20:31:30.848Z,99173.69
2018-09-23T20:33:59.992Z,99179.97
2018-09-23T20:36:29.446Z,99189.35
2018-09-23T20:38:58.624Z,99188.17
2018-09-23T20:41:27.739Z,99188.47
2018-09-23T20:43:58.028Z,99182.38
2018-09-23T20:58:19.617Z,99188.89
2018-09-23T21:00:49.161Z,99182.05
2018-09-23T21:03:18.830Z,99179.05
2018-09-23T21:05:47.941Z,99178.70
2018-09-23T21:08:18.260Z,99188.92
2018-09-23T21:10:47.369Z,99179.34
2018-09-23T21:13:16.824Z,99180.09
2018-09-23T21:15:46.698Z,99174.29
2018-09-23T21:18:15.773Z,99173.80
2018-09-23T21:20:44.830Z,99170.48
2018-09-23T21:23:14.294Z,99165.63
2018-09-23T21:25:43.409Z,99163.14
2018-09-23T21:28:13.233Z,99165.80
2018-09-23T21:30:44.823Z,99163.06
2018-09-23T21:33:14.285Z,99157.22
2018-09-23T21:35:43.431Z,99164.96
2018-09-23T21:38:12.650Z,99159.83
2018-09-23T21:40:41.916Z,99161.44
2018-09-23T21:43:11.112Z,99159.03
2018-09-23T21:45:40.600Z,99156.84
2018-09-23T21:48:09.780Z,99149.06
2018-09-23T21:50:39.423Z,99146.08
2018-09-23T21:53:08.824Z,99149.28
2018-09-23T21:55:37.922Z,99148.95
2018-09-23T21:58:07.014Z,99152.81
2018-09-23T22:00:41.106Z,99155.13
2018-09-23T22:03:10.620Z,99140.96
2018-09-23T22:05:40.104Z,99143.86
2018-09-23T22:08:09.965Z,99147.80
2018-09-23T22:10:39.436Z,99149.25
2018-09-23T22:13:08.887Z,99139.98
2018-09-23T22:15:38.279Z,99138.64
2018-09-23T22:18:07.414Z,99137.30
2018-09-23T22:20:36.474Z,99137.92
2018-09-23T22:23:06.533Z,99138.12
2018-09-23T22:25:35.584Z,99139.98
2018-09-23T22:28:04.793Z,99133.62
2018-09-23T22:30:34.207Z,99138.17
2018-09-23T22:33:03.271Z,99137.09
2018-09-23T22:35:32.341Z,99128.02
2018-09-23T22:38:01.455Z,99131.13
2018-09-23T22:40:30.490Z,99125.82
2018-09-23T22:42:59.620Z,99133.16
2018-09-23T22:45:29.419Z,99130.52
2018-09-23T22:47:58.498Z,99136.14
2018-09-23T22:50:27.594Z,99136.94
2018-09-23T22:52:56.696Z,99136.45
2018-09-23T22:55:25.746Z,99134.95
2018-09-23T22:57:54.804Z,99134.06
2018-09-23T23:00:23.901Z,99137.38
2018-09-23T23:02:53.061Z,99133.47
2018-09-23T23:05:22.119Z,99136.44
2018-09-23T23:07:51.522Z,99132.69
2018-09-23T23:10:20.550Z,99132.24
2018-09-23T23:12:49.728Z,99136.51
2018-09-23T23:15:19.438Z,99142.92
2018-09-23T23:17:48.527Z,99132.08
2018-09-23T23:20:18.132Z,99132.73
2018-09-23T23:22:47.573Z,99134.69
2018-09-23T23:25:16.643Z,99128.59
2018-09-23T23:27:45.700Z,99119.92
2018-09-23T23:30:14.823Z,99121.73
2018-09-23T23:32:43.879Z,99115.88
2018-09-23T23:35:12.985Z,99113.61
2018-09-23T23:37:42.462Z,99113.98
2018-09-23T23:40:12.556Z,99115.48
2018-09-23T23:42:41.634Z,99117.39
2018-09-23T23:45:11.077Z,99111.89
2018-09-23T23:47:41.082Z,99105.75
2018-09-23T23:50:10.169Z,99105.48
2018-09-23T23:52:39.882Z,99119.23
2018-09-23T23:55:08.942Z,99107.83
2018-09-23T23:57:38.004Z,99106.11
